Time;durP1;ratioP1;P1;durP2;ratioP2;P2;SDS_P1;SDS_P2;PMS_P1;PMS_P2;Temp;Humidity;BMP_temperature;BMP_pressure;BME280_temperature;BME280_humidity;BME280_pressure;Samples;Min_cycle;Max_cycle;Signal;HPM_P1;HPM_P2
2022/05/05 00:00:00;;;;;;;23.17;7.15;;;12.20;36.60;;;;;;5085220;28;20406;-75
2022/05/05 00:02:26;;;;;;;12.93;6.80;;;12.10;36.10;;;;;;5092396;28;20826;-75
2022/05/05 00:04:51;;;;;;;14.90;7.40;;;12.10;36.40;;;;;;5093245;28;20877;-75
2022/05/05 00:07:17;;;;;;;13.77;6.80;;;12.10;36.90;;;;;;5092635;28;20485;-75
2022/05/05 00:09:42;;;;;;;19.53;7.30;;;12.10;37.20;;;;;;5085223;28;20393;-73
2022/05/05 00:14:53;;;;;;;12.00;6.82;;;12.10;38.40;;;;;;5082609;28;20524;-74
2022/05/05 00:17:18;;;;;;;13.52;6.80;;;12.10;36.90;;;;;;5073248;28;20408;-74
2022/05/05 00:19:44;;;;;;;13.43;6.70;;;12.40;35.30;;;;;;5081753;28;20398;-74
2022/05/05 00:22:10;;;;;;;16.97;6.53;;;12.90;32.10;;;;;;5086785;28;20389;-73
2022/05/05 00:24:38;;;;;;;17.98;7.80;;;12.90;31.30;;;;;;5093828;28;20378;-74
2022/05/05 00:27:06;;;;;;;11.77;6.90;;;12.60;32.50;;;;;;5095788;28;20388;-73
2022/05/05 00:29:32;;;;;;;18.00;7.50;;;12.40;33.30;;;;;;5093351;28;20469;-73
2022/05/05 00:31:58;;;;;;;15.10;7.30;;;12.30;33.20;;;;;;5093782;28;20478;-74
2022/05/05 00:34:23;;;;;;;15.65;6.90;;;12.20;33.70;;;;;;5094283;28;20463;-73
2022/05/05 00:36:49;;;;;;;15.25;7.22;;;12.20;33.70;;;;;;5096157;28;20382;-74
2022/05/05 00:39:15;;;;;;;17.08;6.90;;;12.20;32.80;;;;;;5094038;28;20897;-73
2022/05/05 00:41:50;;;;;;;13.73;6.70;;;12.60;32.10;;;;;;5074985;28;21037;-74
2022/05/05 00:44:16;;;;;;;12.60;6.32;;;12.70;31.10;;;;;;5072525;28;20430;-73
2022/05/05 00:46:51;;;;;;;12.83;6.60;;;12.90;30.10;;;;;;5073472;28;20419;-74
2022/05/05 00:49:18;;;;;;;15.77;7.40;;;13.00;29.70;;;;;;5098817;28;20500;-73
2022/05/05 00:51:44;;;;;;;14.57;7.20;;;12.80;30.00;;;;;;5100905;28;20396;-73
2022/05/05 00:54:10;;;;;;;10.90;6.63;;;12.70;31.20;;;;;;5088163;28;20405;-73
2022/05/05 00:56:36;;;;;;;12.53;7.10;;;12.80;30.90;;;;;;5092753;28;20394;-73
2022/05/05 00:59:03;;;;;;;16.73;7.60;;;12.90;31.00;;;;;;5083542;28;20414;-74
2022/05/05 01:01:30;;;;;;;17.05;6.78;;;13.10;30.20;;;;;;5096107;28;20392;-73
2022/05/05 01:03:55;;;;;;;17.02;7.88;;;13.00;30.20;;;;;;5093171;28;20536;-74
2022/05/05 01:06:21;;;;;;;14.98;7.75;;;13.00;30.30;;;;;;5093242;28;20417;-74
2022/05/05 01:08:46;;;;;;;14.90;7.40;;;12.90;30.90;;;;;;5092614;28;20389;-73
2022/05/05 01:11:12;;;;;;;13.80;7.68;;;13.10;30.70;;;;;;5098533;28;20412;-73
2022/05/05 01:13:42;;;;;;;16.08;7.70;;;13.10;30.80;;;;;;5091776;28;20409;-74
2022/05/05 01:16:09;;;;;;;18.58;8.02;;;13.30;29.40;;;;;;5091218;28;20437;-73
2022/05/05 01:18:35;;;;;;;13.85;7.63;;;13.30;29.40;;;;;;5085048;28;20403;-73
2022/05/05 01:21:01;;;;;;;16.10;7.45;;;13.20;29.80;;;;;;5087266;28;20860;-74
2022/05/05 01:23:27;;;;;;;15.43;7.55;;;13.20;30.20;;;;;;5072857;28;20384;-73
2022/05/05 01:28:45;;;;;;;15.25;7.50;;;13.10;29.10;;;;;;5082500;28;20449;-73
2022/05/05 01:31:11;;;;;;;16.13;8.63;;;13.00;29.30;;;;;;5090770;28;20439;-74
2022/05/05 01:33:38;;;;;;;15.10;7.63;;;12.80;30.80;;;;;;5091008;28;20405;-74
2022/05/05 01:36:04;;;;;;;13.88;7.47;;;12.80;30.30;;;;;;5091187;28;20458;-74
2022/05/05 01:38:37;;;;;;;10.60;6.90;;;13.10;29.90;;;;;;5082799;28;20915;-74
2022/05/05 01:41:07;;;;;;;12.27;7.75;;;13.20;29.50;;;;;;5083556;28;20396;-74
2022/05/05 01:43:34;;;;;;;13.57;7.15;;;13.20;29.00;;;;;;5091813;28;20410;-73
2022/05/05 01:46:00;;;;;;;13.43;7.45;;;13.30;28.90;;;;;;5092580;28;20382;-74
2022/05/05 01:48:26;;;;;;;13.30;7.72;;;13.20;29.40;;;;;;5092083;28;20401;-74
2022/05/05 01:50:52;;;;;;;14.18;7.15;;;13.20;29.80;;;;;;5119681;22;20438;-72
2022/05/05 01:53:18;;;;;;;15.02;7.50;;;13.10;30.00;;;;;;5108304;28;20401;-71
2022/05/05 01:55:43;;;;;;;15.45;7.00;;;13.00;30.60;;;;;;5095344;28;20396;-71
2022/05/05 01:58:09;;;;;;;18.50;6.90;;;12.90;30.50;;;;;;5102527;28;20406;-70
2022/05/05 02:00:35;;;;;;;15.57;7.10;;;12.80;30.60;;;;;;5098960;28;20477;-70
2022/05/05 02:03:01;;;;;;;15.57;7.23;;;12.80;30.70;;;;;;5090435;28;20866;-71
2022/05/05 02:05:26;;;;;;;13.98;6.65;;;12.70;31.00;;;;;;5088492;28;20385;-71
2022/05/05 02:07:52;;;;;;;13.38;6.95;;;12.70;30.80;;;;;;5100721;28;20388;-72
2022/05/05 02:10:20;;;;;;;16.58;7.35;;;12.60;31.00;;;;;;5092940;28;20758;-72
2022/05/05 02:12:46;;;;;;;16.73;7.10;;;12.30;32.20;;;;;;5094249;28;20400;-72
2022/05/05 02:15:13;;;;;;;20.73;8.53;;;12.10;33.50;;;;;;5117458;28;20383;-71
2022/05/05 02:17:41;;;;;;;12.70;6.90;;;11.90;34.10;;;;;;5101858;28;20764;-72
2022/05/05 02:20:11;;;;;;;13.97;7.97;;;11.80;34.80;;;;;;5099584;28;20865;-71
2022/05/05 02:22:37;;;;;;;11.80;6.72;;;11.70;36.10;;;;;;5115026;28;20384;-72
2022/05/05 02:25:02;;;;;;;12.20;6.20;;;11.50;35.80;;;;;;5116491;28;20379;-72
2022/05/05 02:27:28;;;;;;;11.10;5.93;;;11.50;36.00;;;;;;5080419;28;20786;-73
2022/05/05 02:29:54;;;;;;;13.50;6.80;;;11.70;35.20;;;;;;5107299;28;20417;-72
2022/05/05 02:32:19;;;;;;;13.73;6.55;;;11.90;34.20;;;;;;5096143;28;20400;-72
2022/05/05 02:34:46;;;;;;;13.40;7.10;;;12.20;34.20;;;;;;5106386;28;20414;-73
2022/05/05 02:39:57;;;;;;;19.73;8.02;;;12.40;32.60;;;;;;5114818;28;20376;-69
2022/05/05 02:42:23;;;;;;;16.48;6.82;;;12.30;33.20;;;;;;5114395;28;20372;-71
2022/05/05 02:44:48;;;;;;;13.60;7.00;;;12.50;32.90;;;;;;5114770;28;20378;-72
2022/05/05 02:47:14;;;;;;;15.23;6.90;;;12.40;32.80;;;;;;5085839;28;20928;-71
2022/05/05 02:49:40;;;;;;;12.95;6.38;;;12.30;33.70;;;;;;5111572;28;20392;-70
2022/05/05 02:52:07;;;;;;;15.05;7.18;;;11.90;35.10;;;;;;5107589;28;20411;-71
2022/05/05 02:54:51;;;;;;;12.40;7.22;;;12.00;35.00;;;;;;5109053;28;20445;-72
2022/05/05 02:57:22;;;;;;;16.23;7.05;;;11.80;35.60;;;;;;5100508;28;20910;-72
2022/05/05 02:59:47;;;;;;;13.43;7.40;;;11.80;36.30;;;;;;5073715;28;20391;-72
2022/05/05 03:02:14;;;;;;;10.60;6.87;;;11.90;36.00;;;;;;5073351;28;20382;-71
2022/05/05 03:04:40;;;;;;;20.00;7.45;;;12.10;34.70;;;;;;5091390;28;20400;-70
2022/05/05 03:07:05;;;;;;;14.98;7.25;;;11.90;35.40;;;;;;5088909;28;20376;-71
2022/05/05 03:09:31;;;;;;;14.70;7.45;;;12.00;35.30;;;;;;5114448;28;20445;-71
2022/05/05 03:11:57;;;;;;;17.80;8.10;;;12.00;35.70;;;;;;5113953;28;20384;-71
2022/05/05 03:14:22;;;;;;;18.00;7.73;;;12.00;35.60;;;;;;5102762;28;20570;-70
2022/05/05 03:16:48;;;;;;;12.88;7.47;;;11.80;36.70;;;;;;5105474;28;20411;-72
2022/05/05 03:19:14;;;;;;;18.48;8.65;;;11.50;37.60;;;;;;5114005;28;20377;-73
2022/05/05 03:21:39;;;;;;;12.52;7.25;;;11.40;38.00;;;;;;5114394;28;20385;-70
2022/05/05 03:24:05;;;;;;;12.67;7.20;;;11.20;38.60;;;;;;5098712;28;20401;-73
2022/05/05 03:26:31;;;;;;;13.35;7.10;;;11.20;40.10;;;;;;5092414;28;20398;-70
2022/05/05 03:28:57;;;;;;;17.77;7.10;;;11.10;41.70;;;;;;5087494;28;20804;-70
2022/05/05 03:31:23;;;;;;;17.97;6.80;;;11.00;43.10;;;;;;5072948;28;20388;-70
2022/05/05 03:33:48;;;;;;;12.37;6.70;;;11.00;44.40;;;;;;5077382;28;20412;-70
2022/05/05 03:36:14;;;;;;;11.95;7.10;;;11.10;43.90;;;;;;5104654;28;20510;-70
2022/05/05 03:38:40;;;;;;;15.75;7.50;;;11.20;43.80;;;;;;5113481;28;20872;-70
2022/05/05 03:41:05;;;;;;;15.63;7.50;;;11.60;39.20;;;;;;5113395;28;20474;-70
2022/05/05 03:43:32;;;;;;;13.23;7.50;;;11.60;38.30;;;;;;5101941;28;20426;-71
2022/05/05 03:45:58;;;;;;;19.70;7.70;;;11.50;39.40;;;;;;5104576;28;20388;-70
2022/05/05 03:48:25;;;;;;;11.35;7.10;;;11.50;38.30;;;;;;5113375;28;20388;-71
2022/05/05 03:50:50;;;;;;;14.05;7.28;;;11.60;37.50;;;;;;5112919;28;20402;-70
2022/05/05 03:53:16;;;;;;;15.05;7.57;;;11.60;36.80;;;;;;5111394;28;20483;-70
2022/05/05 03:55:41;;;;;;;12.20;7.60;;;11.50;37.40;;;;;;5103334;28;20879;-70
2022/05/05 03:58:07;;;;;;;20.25;8.20;;;11.30;38.40;;;;;;5084552;28;20386;-70
2022/05/05 04:00:32;;;;;;;13.77;7.23;;;11.10;39.70;;;;;;5092412;28;20551;-70
2022/05/05 04:05:43;;;;;;;15.90;7.95;;;10.80;44.20;;;;;;5099573;28;20369;-71
2022/05/05 04:08:08;;;;;;;14.75;7.40;;;10.70;46.80;;;;;;5112592;28;20391;-70
2022/05/05 04:10:34;;;;;;;12.53;7.20;;;10.70;48.70;;;;;;5112827;28;20752;-70
2022/05/05 04:13:00;;;;;;;15.80;7.63;;;10.60;49.10;;;;;;5086092;28;20924;-71
2022/05/05 04:15:25;;;;;;;18.90;7.57;;;10.60;49.50;;;;;;5098381;28;20405;-71
2022/05/05 04:17:51;;;;;;;11.60;6.63;;;10.70;48.90;;;;;;5111541;28;20840;-71
2022/05/05 04:20:17;;;;;;;13.00;7.50;;;10.70;48.60;;;;;;5112648;28;20380;-70
2022/05/05 04:22:43;;;;;;;13.80;6.93;;;10.70;48.50;;;;;;5109328;28;20435;-70
2022/05/05 04:25:09;;;;;;;19.20;8.50;;;10.70;47.80;;;;;;5107741;28;20414;-70
2022/05/05 04:27:35;;;;;;;17.15;8.02;;;10.70;48.00;;;;;;5091963;28;20398;-70
2022/05/05 04:30:02;;;;;;;15.00;7.75;;;10.80;47.80;;;;;;5087865;28;20379;-70
2022/05/05 04:32:28;;;;;;;17.15;7.90;;;10.80;47.80;;;;;;5091295;28;20378;-70
2022/05/05 04:34:54;;;;;;;18.17;8.77;;;10.80;48.20;;;;;;5102545;28;20808;-70
2022/05/05 04:37:20;;;;;;;12.30;7.03;;;10.70;48.90;;;;;;5111825;28;20722;-71
2022/05/05 04:39:46;;;;;;;11.23;7.20;;;10.70;49.40;;;;;;5112239;28;20383;-72
2022/05/05 04:42:12;;;;;;;17.80;8.60;;;10.70;49.10;;;;;;5112073;28;20388;-70
2022/05/05 04:44:37;;;;;;;19.05;8.50;;;10.60;49.00;;;;;;5094124;28;20896;-71
2022/05/05 04:47:03;;;;;;;18.03;8.73;;;10.80;47.60;;;;;;5104274;28;20455;-71
2022/05/05 04:49:29;;;;;;;17.15;8.60;;;10.80;46.50;;;;;;5111902;28;20399;-72
2022/05/05 04:51:54;;;;;;;16.77;8.37;;;10.80;46.80;;;;;;5113681;28;20402;-72
2022/05/05 04:54:20;;;;;;;16.93;8.53;;;10.80;47.20;;;;;;5099115;28;20440;-72
2022/05/05 04:56:46;;;;;;;16.60;7.83;;;10.80;47.00;;;;;;5093611;28;20888;-70
2022/05/05 04:59:12;;;;;;;12.13;7.40;;;10.90;46.00;;;;;;5081680;28;20815;-73
2022/05/05 05:01:37;;;;;;;17.77;7.90;;;10.90;45.70;;;;;;5071906;28;20777;-72
2022/05/05 05:04:03;;;;;;;15.10;7.90;;;11.00;45.00;;;;;;5078911;28;20752;-71
2022/05/05 05:06:29;;;;;;;16.63;8.13;;;11.00;45.10;;;;;;5103230;28;20490;-71
2022/05/05 05:08:57;;;;;;;22.90;8.70;;;11.00;44.90;;;;;;5111910;28;20384;-71
2022/05/05 05:11:23;;;;;;;17.60;8.30;;;11.10;45.00;;;;;;5093919;28;20433;-72
2022/05/05 05:13:49;;;;;;;16.07;8.37;;;11.10;45.10;;;;;;5094846;28;20408;-72
2022/05/05 05:16:14;;;;;;;14.27;9.10;;;11.20;44.60;;;;;;5104112;28;20394;-71
2022/05/05 05:18:40;;;;;;;20.33;9.93;;;11.30;44.90;;;;;;5109938;28;20468;-70
2022/05/05 05:21:05;;;;;;;18.50;9.53;;;11.40;45.50;;;;;;5112445;28;20449;-70
2022/05/05 05:23:31;;;;;;;20.33;9.50;;;11.50;45.40;;;;;;5105932;28;20404;-71
2022/05/05 05:25:57;;;;;;;20.63;9.00;;;11.60;45.30;;;;;;5102711;28;20377;-71
2022/05/05 05:28:22;;;;;;;18.55;9.32;;;11.70;44.50;;;;;;5112773;28;20376;-71
2022/05/05 05:30:48;;;;;;;18.08;9.13;;;11.80;44.40;;;;;;5095248;28;20791;-71
2022/05/05 05:33:13;;;;;;;16.13;8.48;;;11.80;44.20;;;;;;5086328;28;20458;-71
2022/05/05 05:35:39;;;;;;;17.67;8.95;;;11.90;42.80;;;;;;5109415;28;20384;-72
2022/05/05 05:38:05;;;;;;;17.77;9.98;;;12.00;42.40;;;;;;5112849;28;20407;-72
2022/05/05 05:40:31;;;;;;;19.90;9.38;;;12.20;40.70;;;;;;5109119;28;20390;-71
2022/05/05 05:42:57;;;;;;;19.45;10.27;;;12.30;39.40;;;;;;5099833;28;20430;-73
2022/05/05 05:45:24;;;;;;;21.27;10.03;;;12.30;39.50;;;;;;5096949;28;20465;-72
2022/05/05 05:47:49;;;;;;;27.55;11.30;;;12.40;39.40;;;;;;5089813;28;20382;-70
2022/05/05 05:50:15;;;;;;;17.50;9.03;;;12.50;39.20;;;;;;5088388;28;20405;-72
2022/05/05 05:52:41;;;;;;;27.17;10.20;;;12.70;38.50;;;;;;5082441;28;20404;-72
2022/05/05 05:55:07;;;;;;;20.55;10.25;;;12.80;38.20;;;;;;5090922;28;20398;-70
2022/05/05 05:57:33;;;;;;;25.88;10.40;;;13.00;36.90;;;;;;5097886;28;20449;-71
2022/05/05 05:59:58;;;;;;;26.02;10.60;;;13.10;35.40;;;;;;5096449;28;20470;-71
2022/05/05 06:05:08;;;;;;;24.13;9.73;;;13.40;35.20;;;;;;5079896;28;20407;-72
2022/05/05 06:07:34;;;;;;;22.00;9.77;;;13.60;33.80;;;;;;5093866;28;20379;-74
2022/05/05 06:09:59;;;;;;;21.83;10.70;;;13.70;33.30;;;;;;5081970;28;20465;-71
2022/05/05 06:12:25;;;;;;;23.95;9.90;;;13.90;32.30;;;;;;5093157;28;20408;-70
2022/05/05 06:14:51;;;;;;;18.08;10.30;;;14.20;32.60;;;;;;5101925;28;20873;-71
2022/05/05 06:17:16;;;;;;;23.05;10.98;;;14.40;29.60;;;;;;5110787;28;20391;-72
2022/05/05 06:19:43;;;;;;;26.50;10.70;;;14.40;29.20;;;;;;5081263;28;20410;-71
2022/05/05 06:22:09;;;;;;;24.30;11.00;;;14.50;28.50;;;;;;5102517;28;20399;-71
2022/05/05 06:24:35;;;;;;;27.33;11.43;;;14.60;28.20;;;;;;5073558;28;20477;-71
2022/05/05 06:27:01;;;;;;;17.58;10.23;;;14.60;27.50;;;;;;5106346;28;20405;-71
2022/05/05 06:29:26;;;;;;;19.80;10.48;;;14.60;27.30;;;;;;5081446;28;20438;-71
2022/05/05 06:31:52;;;;;;;31.73;10.90;;;14.70;27.30;;;;;;5097113;28;20403;-71
2022/05/05 06:34:17;;;;;;;26.40;12.13;;;14.80;27.20;;;;;;5094869;28;20441;-71
2022/05/05 06:36:43;;;;;;;21.63;10.43;;;14.90;26.80;;;;;;5089830;28;20457;-72
2022/05/05 06:39:08;;;;;;;21.90;10.95;;;14.90;26.60;;;;;;5079923;28;20401;-71
2022/05/05 06:41:35;;;;;;;35.00;11.60;;;15.00;26.40;;;;;;5093399;28;20404;-71
2022/05/05 06:44:00;;;;;;;22.65;11.43;;;15.00;26.50;;;;;;5074573;28;20407;-74
2022/05/05 06:46:27;;;;;;;28.00;11.18;;;15.20;26.90;;;;;;5075318;28;20892;-72
2022/05/05 06:48:53;;;;;;;26.90;11.80;;;15.40;26.00;;;;;;5076997;28;20407;-72
2022/05/05 06:51:19;;;;;;;23.73;11.23;;;15.50;25.80;;;;;;5076485;28;20913;-71
2022/05/05 06:53:45;;;;;;;21.03;10.27;;;15.60;26.50;;;;;;5082254;28;20436;-71
2022/05/05 06:56:10;;;;;;;26.77;11.80;;;15.80;25.70;;;;;;5063771;28;20435;-70
2022/05/05 06:58:36;;;;;;;21.45;11.02;;;15.80;25.10;;;;;;5072678;28;20784;-74
2022/05/05 07:03:46;;;;;;;27.33;11.90;;;15.70;24.60;;;;;;5090494;28;20405;-72
2022/05/05 07:06:12;;;;;;;26.53;12.80;;;15.80;25.00;;;;;;5080196;28;20398;-73
2022/05/05 07:11:23;;;;;;;23.60;10.35;;;15.90;24.90;;;;;;5080995;28;20454;-72
2022/05/05 07:13:49;;;;;;;21.50;11.30;;;16.20;24.00;;;;;;5088887;28;20409;-70
2022/05/05 07:16:14;;;;;;;29.67;12.13;;;16.30;22.70;;;;;;5079367;28;20878;-71
2022/05/05 07:18:40;;;;;;;22.50;11.07;;;16.50;22.30;;;;;;5079623;28;20403;-70
2022/05/05 07:21:06;;;;;;;23.27;11.40;;;16.70;22.30;;;;;;5066190;28;20407;-71
2022/05/05 07:23:31;;;;;;;26.45;11.43;;;17.20;21.20;;;;;;5083106;28;20706;-71
2022/05/05 07:25:57;;;;;;;23.15;10.88;;;17.70;19.10;;;;;;5082913;28;20914;-70
2022/05/05 07:28:22;;;;;;;26.50;12.13;;;18.00;18.00;;;;;;5078805;28;20429;-71
2022/05/05 07:30:49;;;;;;;25.70;13.03;;;17.90;17.70;;;;;;5075705;28;20419;-71
2022/05/05 07:33:14;;;;;;;23.92;11.80;;;18.40;16.90;;;;;;5083831;28;20406;-71
2022/05/05 07:35:40;;;;;;;30.87;12.20;;;18.70;15.40;;;;;;5081237;28;20410;-70
2022/05/05 07:38:06;;;;;;;30.83;13.00;;;18.70;14.90;;;;;;5078685;28;20584;-72
2022/05/05 07:40:31;;;;;;;26.13;13.00;;;18.60;15.30;;;;;;5083300;28;20407;-72
2022/05/05 07:42:57;;;;;;;28.83;13.60;;;18.70;15.10;;;;;;5069645;28;20858;-70
2022/05/05 07:45:23;;;;;;;26.20;11.50;;;18.50;15.40;;;;;;5080388;28;20419;-70
2022/05/05 07:47:49;;;;;;;28.88;12.82;;;18.60;15.00;;;;;;5077012;28;20451;-70
2022/05/05 07:50:15;;;;;;;39.42;11.93;;;18.70;14.20;;;;;;5101064;22;20436;-77
2022/05/05 07:52:40;;;;;;;30.43;10.30;;;18.80;14.50;;;;;;5100256;28;20402;-75
2022/05/05 07:55:06;;;;;;;18.87;10.30;;;18.90;12.40;;;;;;5109858;28;20446;-76
2022/05/05 07:57:32;;;;;;;20.07;10.23;;;19.10;12.30;;;;;;5121026;28;20392;-75
2022/05/05 07:59:58;;;;;;;26.50;10.00;;;19.30;12.50;;;;;;5116616;28;20402;-77
2022/05/05 08:02:23;;;;;;;25.17;8.50;;;19.30;12.10;;;;;;5092511;28;20902;-74
2022/05/05 08:04:49;;;;;;;24.13;9.47;;;19.60;10.10;;;;;;5090816;28;20430;-75
2022/05/05 08:07:15;;;;;;;17.53;8.70;;;19.60;10.60;;;;;;5092078;28;20462;-77
2022/05/05 08:09:41;;;;;;;16.67;8.45;;;19.30;10.90;;;;;;5097200;28;20410;-76
2022/05/05 08:12:07;;;;;;;20.25;8.18;;;19.30;10.50;;;;;;5096590;28;20421;-77
2022/05/05 08:14:33;;;;;;;20.27;7.63;;;19.40;8.80;;;;;;5094533;28;20861;-77
2022/05/05 08:16:59;;;;;;;18.27;6.60;;;18.70;8.90;;;;;;5093281;28;20417;-77
2022/05/05 08:19:24;;;;;;;14.50;7.20;;;18.40;10.60;;;;;;5100396;28;20465;-76
2022/05/05 08:21:50;;;;;;;18.97;7.90;;;18.30;11.20;;;;;;5102931;28;20408;-77
2022/05/05 08:29:45;;;;;;;19.75;8.38;;;18.80;10.50;;;;;;5100999;28;20409;-77
2022/05/05 08:32:11;;;;;;;18.55;8.80;;;18.70;10.30;;;;;;5081824;28;20402;-76
2022/05/05 08:34:37;;;;;;;18.77;9.98;;;18.70;10.60;;;;;;5100250;28;20431;-78
2022/05/05 08:37:03;;;;;;;28.08;11.98;;;18.60;10.40;;;;;;5101846;28;20394;-76
2022/05/05 08:39:28;;;;;;;25.92;11.65;;;18.50;11.20;;;;;;5085309;28;20425;-77
2022/05/05 08:41:57;;;;;;;29.83;13.53;;;18.50;11.50;;;;;;5103742;28;20421;-77
2022/05/05 08:44:22;;;;;;;27.48;14.23;;;18.50;12.10;;;;;;5106020;28;20405;-75
2022/05/05 08:46:50;;;;;;;28.53;13.57;;;18.60;12.40;;;;;;5099990;28;20525;-77
2022/05/05 08:49:20;;;;;;;34.00;15.73;;;18.70;11.30;;;;;;5103309;28;20405;-76
2022/05/05 08:51:49;;;;;;;32.42;14.00;;;18.90;11.90;;;;;;5077606;28;20464;-79
2022/05/05 08:54:19;;;;;;;25.77;11.93;;;18.80;12.00;;;;;;5102931;28;20398;-76
2022/05/05 08:56:45;;;;;;;21.85;12.77;;;18.60;11.60;;;;;;5094449;28;20386;-76
2022/05/05 08:59:13;;;;;;;26.92;12.27;;;18.40;11.70;;;;;;5099099;28;20416;-77
2022/05/05 09:01:39;;;;;;;25.85;13.63;;;18.40;12.60;;;;;;5098333;28;20400;-75
2022/05/05 09:04:06;;;;;;;33.53;13.98;;;18.40;11.70;;;;;;5098338;28;20397;-77
2022/05/05 09:06:42;;;;;;;26.77;12.98;;;18.30;12.60;;;;;;5097592;28;20406;-77
2022/05/05 09:09:23;;;;;;;26.05;14.18;;;18.40;12.50;;;;;;5096089;28;20423;-77
2022/05/05 09:12:13;;;;;;;29.55;12.77;;;18.10;12.50;;;;;;5094425;28;20497;-76
2022/05/05 09:14:40;;;;;;;28.48;12.98;;;17.80;13.00;;;;;;5097194;28;20404;-80
2022/05/05 09:17:07;;;;;;;33.37;13.30;;;17.90;13.70;;;;;;5087724;28;20913;-74
2022/05/05 09:19:37;;;;;;;39.50;14.00;;;17.90;12.80;;;;;;5069325;28;20461;-76
2022/05/05 09:22:05;;;;;;;27.77;14.32;;;17.80;13.80;;;;;;5089094;28;20398;-75
2022/05/05 09:24:36;;;;;;;29.35;12.63;;;17.90;13.80;;;;;;5088113;28;20397;-76
2022/05/05 09:27:15;;;;;;;32.55;15.05;;;18.10;12.20;;;;;;5093479;28;20480;-75
2022/05/05 09:29:41;;;;;;;29.00;15.15;;;18.50;12.60;;;;;;5089739;28;20394;-75
2022/05/05 09:32:12;;;;;;;23.92;14.35;;;18.40;12.60;;;;;;5087999;28;20909;-75
2022/05/05 09:34:40;;;;;;;29.05;14.02;;;18.60;12.20;;;;;;5073787;28;20589;-76
2022/05/05 09:37:19;;;;;;;28.83;15.25;;;18.50;12.80;;;;;;5066859;28;20429;-75
2022/05/05 09:39:44;;;;;;;30.42;14.95;;;18.60;11.90;;;;;;5085417;28;20385;-76
2022/05/05 09:42:10;;;;;;;34.72;15.27;;;18.60;11.80;;;;;;5089325;28;20417;-77
2022/05/05 09:44:45;;;;;;;27.67;14.40;;;18.70;12.10;;;;;;5087222;28;20538;-73
2022/05/05 09:47:16;;;;;;;32.65;15.55;;;19.00;11.50;;;;;;5081894;28;20874;-75
2022/05/05 09:49:57;;;;;;;34.35;14.90;;;19.10;11.50;;;;;;5090990;28;20402;-74
2022/05/05 09:57:58;;;;;;;28.10;13.98;;;19.20;10.90;;;;;;5089209;28;20832;-75
2022/05/05 10:00:44;;;;;;;33.55;15.95;;;18.90;12.10;;;;;;5089328;28;20804;-76
2022/05/05 10:06:25;;;;;;;32.55;15.30;;;19.30;12.00;;;;;;5069839;28;20906;-77
2022/05/05 10:08:53;;;;;;;30.77;14.20;;;19.60;10.60;;;;;;5091678;28;20840;-76
2022/05/05 10:11:19;;;;;;;27.75;14.32;;;19.70;10.80;;;;;;5092522;28;20398;-76
2022/05/05 10:13:45;;;;;;;30.02;15.80;;;19.70;10.20;;;;;;5073958;28;20493;-78
2022/05/05 10:16:14;;;;;;;30.90;15.07;;;19.40;10.30;;;;;;5093287;28;20762;-76
2022/05/05 10:18:41;;;;;;;28.08;14.80;;;19.40;11.10;;;;;;5090862;28;20425;-77
2022/05/05 10:21:19;;;;;;;30.20;16.00;;;19.40;10.90;;;;;;5097545;28;20386;-77
2022/05/05 10:24:06;;;;;;;28.38;15.05;;;19.20;11.00;;;;;;5074926;28;20400;-76
2022/05/05 10:26:33;;;;;;;28.70;15.60;;;19.60;10.30;;;;;;5091269;28;20477;-80
2022/05/05 10:28:59;;;;;;;24.73;14.07;;;19.80;9.70;;;;;;5093320;28;20462;-75
2022/05/05 10:31:30;;;;;;;28.23;15.18;;;19.70;10.20;;;;;;5100217;28;20402;-80
2022/05/05 10:34:14;;;;;;;27.50;14.55;;;19.70;10.20;;;;;;5101234;28;20411;-77
2022/05/05 10:36:57;;;;;;;30.30;16.55;;;19.50;10.60;;;;;;5108788;28;20458;-78
2022/05/05 10:39:22;;;;;;;35.03;14.70;;;19.90;10.50;;;;;;5110735;28;20381;-77
2022/05/05 10:41:51;;;;;;;27.67;14.88;;;20.60;9.50;;;;;;5088642;28;20406;-80
2022/05/05 10:44:23;;;;;;;21.08;12.35;;;21.00;8.10;;;;;;5109217;28;20401;-81
2022/05/05 10:46:58;;;;;;;26.40;13.38;;;21.30;8.60;;;;;;5107807;28;20394;-78
2022/05/05 10:49:32;;;;;;;25.33;13.38;;;21.50;7.50;;;;;;5090739;28;20410;-77
2022/05/05 10:52:16;;;;;;;20.50;12.18;;;21.50;6.90;;;;;;5078033;28;20417;-77
2022/05/05 10:54:50;;;;;;;31.17;13.43;;;20.70;8.20;;;;;;5078899;28;20906;-77
2022/05/05 10:57:29;;;;;;;21.80;12.23;;;20.50;9.10;;;;;;5101964;28;20405;-76
2022/05/05 11:00:10;;;;;;;19.10;12.20;;;20.40;9.10;;;;;;5084627;28;20404;-76
2022/05/05 11:02:40;;;;;;;24.50;13.70;;;20.10;8.60;;;;;;5101408;28;20394;-76
2022/05/05 11:05:35;;;;;;;24.98;12.82;;;20.00;9.40;;;;;;5099890;28;20455;-76
2022/05/05 11:08:10;;;;;;;22.75;11.43;;;20.20;9.70;;;;;;5098228;28;20451;-79
2022/05/05 11:10:47;;;;;;;30.48;14.10;;;20.60;8.50;;;;;;5073561;28;20440;-78
2022/05/05 11:13:35;;;;;;;31.33;16.02;;;20.20;9.50;;;;;;5079209;28;20433;-78
2022/05/05 11:22:20;;;;;;;34.10;16.57;;;18.60;13.40;;;;;;5097335;28;20519;-79
2022/05/05 11:24:48;;;;;;;35.10;16.42;;;18.30;13.60;;;;;;5097892;28;20405;-80
2022/05/05 11:27:19;;;;;;;29.23;16.37;;;18.40;13.40;;;;;;5097843;28;20510;-78
2022/05/05 11:29:53;;;;;;;32.45;16.35;;;18.70;13.70;;;;;;5093051;28;20649;-79
2022/05/05 11:32:29;;;;;;;33.70;16.38;;;18.80;13.00;;;;;;5094583;28;20447;-79
2022/05/05 11:34:54;;;;;;;31.20;15.82;;;18.80;12.90;;;;;;5094039;28;20398;-80
2022/05/05 11:37:20;;;;;;;32.80;16.67;;;19.10;12.60;;;;;;5100930;28;20394;-80
2022/05/05 11:39:50;;;;;;;34.00;16.35;;;19.20;11.50;;;;;;5097445;28;20405;-81
2022/05/05 11:42:16;;;;;;;33.85;15.98;;;19.10;11.40;;;;;;5097750;28;20394;-79
2022/05/05 11:44:44;;;;;;;32.42;15.90;;;19.10;12.30;;;;;;5080703;28;20480;-81
2022/05/05 11:47:13;;;;;;;25.30;13.68;;;19.20;11.20;;;;;;5082737;28;20560;-80
2022/05/05 11:49:43;;;;;;;30.10;14.30;;;19.30;11.30;;;;;;5072007;28;20771;-80
2022/05/05 11:52:19;;;;;;;26.30;14.17;;;19.30;11.20;;;;;;5099242;28;20512;-79
2022/05/05 11:54:54;;;;;;;28.05;14.93;;;19.30;11.20;;;;;;5098818;28;20401;-79
2022/05/05 11:57:39;;;;;;;27.15;14.88;;;19.10;10.60;;;;;;5113020;28;20425;-80
2022/05/05 12:02:53;;;;;;;39.10;18.92;;;18.80;12.10;;;;;;5102561;28;20510;-79
2022/05/05 12:05:21;;;;;;;29.75;15.82;;;18.80;12.20;;;;;;5095295;28;20390;-81
2022/05/05 12:07:47;;;;;;;26.77;15.65;;;19.20;11.00;;;;;;5101093;28;20405;-80
2022/05/05 12:10:15;;;;;;;28.50;15.10;;;19.50;9.90;;;;;;5095396;28;20409;-80
2022/05/05 12:12:49;;;;;;;29.30;15.93;;;20.00;10.20;;;;;;5080277;28;20401;-81
2022/05/05 12:15:20;;;;;;;30.50;16.85;;;20.50;8.70;;;;;;5097369;28;20497;-80
2022/05/05 12:17:52;;;;;;;30.40;17.50;;;20.90;8.60;;;;;;5097402;28;20405;-80
2022/05/05 12:20:21;;;;;;;28.23;16.90;;;21.20;8.00;;;;;;5074766;28;20484;-81
2022/05/05 12:23:00;;;;;;;30.38;19.38;;;21.10;7.20;;;;;;5094931;28;20474;-79
2022/05/05 12:25:27;;;;;;;37.70;19.20;;;20.80;7.60;;;;;;5098787;28;20394;-80
2022/05/05 12:27:58;;;;;;;31.63;19.25;;;20.50;8.50;;;;;;5079745;28;20409;-81
2022/05/05 12:30:36;;;;;;;33.83;17.77;;;20.40;8.20;;;;;;5110129;28;20397;-81
2022/05/05 12:33:03;;;;;;;33.13;19.33;;;20.20;9.30;;;;;;5093218;28;20484;-79
2022/05/05 12:35:34;;;;;;;33.05;21.55;;;20.30;9.80;;;;;;5083160;28;20398;-80
2022/05/05 12:38:02;;;;;;;32.55;19.60;;;20.50;8.70;;;;;;5097164;28;20897;-81
2022/05/05 12:40:28;;;;;;;34.50;21.80;;;20.90;8.10;;;;;;5104344;28;20404;-79
2022/05/05 12:43:12;;;;;;;39.15;21.13;;;21.10;8.10;;;;;;5084007;28;20385;-78
2022/05/05 12:45:38;;;;;;;37.55;22.08;;;21.10;9.10;;;;;;5098496;28;20386;-79
2022/05/05 12:48:10;;;;;;;39.15;20.80;;;20.80;7.90;;;;;;5101924;28;20512;-79
2022/05/05 12:59:50;;;;;;;36.37;18.63;;;20.70;8.00;;;;;;5060148;28;20434;-79
2022/05/05 13:02:15;;;;;;;34.87;20.50;;;21.00;8.10;;;;;;5082855;28;20394;-78
2022/05/05 13:04:41;;;;;;;32.17;20.60;;;20.80;8.80;;;;;;5083670;28;20385;-80
2022/05/05 13:07:16;;;;;;;35.30;20.42;;;20.70;8.60;;;;;;5064476;28;20432;-78
2022/05/05 13:09:41;;;;;;;29.52;19.48;;;20.70;8.50;;;;;;5097358;28;20404;-80
2022/05/05 13:12:07;;;;;;;31.60;18.43;;;20.70;8.60;;;;;;5076100;28;20393;-82
2022/05/05 13:14:33;;;;;;;29.03;18.50;;;21.00;8.00;;;;;;5097419;28;20545;-79
2022/05/05 13:17:03;;;;;;;27.35;17.73;;;21.20;7.70;;;;;;5102769;28;20386;-76
2022/05/05 13:19:36;;;;;;;27.80;18.85;;;21.60;7.80;;;;;;5097649;28;20855;-82
2022/05/05 13:22:03;;;;;;;35.00;18.43;;;21.50;7.20;;;;;;5077942;28;20424;-81
2022/05/05 13:24:29;;;;;;;28.83;18.52;;;22.10;6.40;;;;;;5084811;28;20457;-80
2022/05/05 13:27:08;;;;;;;28.37;17.13;;;23.00;5.70;;;;;;5094811;28;20781;-77